sensor_id;sensor_type;location;lat;lon;timestamp;P1;durP1;ratioP1;P2;durP2;ratioP2
75584;SDS011;64162;53.508;10.476;2022-12-07T00:01:34;148.40;;;29.42;;
75584;SDS011;64162;53.508;10.476;2022-12-07T00:04:05;136.43;;;26.42;;
75584;SDS011;64162;53.508;10.476;2022-12-07T00:06:36;145.77;;;26.67;;
75584;SDS011;64162;53.508;10.476;2022-12-07T00:09:05;138.98;;;25.20;;
75584;SDS011;64162;53.508;10.476;2022-12-07T00:11:33;129.05;;;26.00;;
75584;SDS011;64162;53.508;10.476;2022-12-07T00:14:01;125.75;;;27.13;;
75584;SDS011;64162;53.508;10.476;2022-12-07T00:16:30;136.02;;;26.92;;
75584;SDS011;64162;53.508;10.476;2022-12-07T00:18:59;145.60;;;24.67;;
75584;SDS011;64162;53.508;10.476;2022-12-07T00:21:27;138.43;;;29.63;;
75584;SDS011;64162;53.508;10.476;2022-12-07T00:23:56;137.98;;;28.20;;
75584;SDS011;64162;53.508;10.476;2022-12-07T00:26:24;122.93;;;22.08;;
75584;SDS011;64162;53.508;10.476;2022-12-07T00:28:59;147.98;;;26.45;;
75584;SDS011;64162;53.508;10.476;2022-12-07T00:31:29;115.15;;;24.92;;
75584;SDS011;64162;53.508;10.476;2022-12-07T00:33:59;161.57;;;29.13;;
75584;SDS011;64162;53.508;10.476;2022-12-07T00:36:26;134.30;;;25.63;;
75584;SDS011;64162;53.508;10.476;2022-12-07T00:38:57;138.90;;;26.63;;
75584;SDS011;64162;53.508;10.476;2022-12-07T00:41:25;143.82;;;28.15;;
75584;SDS011;64162;53.508;10.476;2022-12-07T00:43:53;137.95;;;29.27;;
75584;SDS011;64162;53.508;10.476;2022-12-07T00:46:20;132.55;;;26.13;;
75584;SDS011;64162;53.508;10.476;2022-12-07T00:48:48;141.18;;;26.17;;
75584;SDS011;64162;53.508;10.476;2022-12-07T00:51:16;102.35;;;23.33;;
75584;SDS011;64162;53.508;10.476;2022-12-07T00:53:44;142.02;;;28.17;;
75584;SDS011;64162;53.508;10.476;2022-12-07T00:56:12;135.07;;;28.63;;
75584;SDS011;64162;53.508;10.476;2022-12-07T00:58:40;88.60;;;20.05;;
75584;SDS011;64162;53.508;10.476;2022-12-07T01:01:08;131.93;;;28.73;;
75584;SDS011;64162;53.508;10.476;2022-12-07T01:03:35;116.18;;;24.23;;
75584;SDS011;64162;53.508;10.476;2022-12-07T01:06:03;132.48;;;27.77;;
75584;SDS011;64162;53.508;10.476;2022-12-07T01:08:30;131.82;;;28.42;;
75584;SDS011;64162;53.508;10.476;2022-12-07T01:11:01;138.98;;;29.52;;
75584;SDS011;64162;53.508;10.476;2022-12-07T01:13:32;141.55;;;29.55;;
75584;SDS011;64162;53.508;10.476;2022-12-07T01:16:01;161.73;;;32.17;;
75584;SDS011;64162;53.508;10.476;2022-12-07T01:18:31;150.80;;;30.33;;
75584;SDS011;64162;53.508;10.476;2022-12-07T01:21:00;139.45;;;26.08;;
75584;SDS011;64162;53.508;10.476;2022-12-07T01:23:32;127.78;;;27.02;;
75584;SDS011;64162;53.508;10.476;2022-12-07T01:28:28;113.75;;;25.05;;
75584;SDS011;64162;53.508;10.476;2022-12-07T01:30:56;105.72;;;21.40;;
75584;SDS011;64162;53.508;10.476;2022-12-07T01:33:23;132.45;;;26.40;;
75584;SDS011;64162;53.508;10.476;2022-12-07T01:35:49;131.95;;;29.17;;
75584;SDS011;64162;53.508;10.476;2022-12-07T01:38:16;135.43;;;27.55;;
75584;SDS011;64162;53.508;10.476;2022-12-07T01:40:42;131.95;;;28.88;;
75584;SDS011;64162;53.508;10.476;2022-12-07T01:43:18;132.15;;;27.63;;
75584;SDS011;64162;53.508;10.476;2022-12-07T01:45:45;121.32;;;25.65;;
75584;SDS011;64162;53.508;10.476;2022-12-07T01:48:13;107.85;;;20.65;;
75584;SDS011;64162;53.508;10.476;2022-12-07T01:50:44;122.43;;;25.17;;
75584;SDS011;64162;53.508;10.476;2022-12-07T01:53:12;129.85;;;24.63;;
75584;SDS011;64162;53.508;10.476;2022-12-07T01:55:41;133.13;;;24.70;;
75584;SDS011;64162;53.508;10.476;2022-12-07T01:58:10;127.00;;;26.10;;
75584;SDS011;64162;53.508;10.476;2022-12-07T02:00:38;113.47;;;26.58;;
75584;SDS011;64162;53.508;10.476;2022-12-07T02:03:40;117.68;;;26.42;;
75584;SDS011;64162;53.508;10.476;2022-12-07T02:06:07;119.97;;;25.33;;
75584;SDS011;64162;53.508;10.476;2022-12-07T02:08:36;119.40;;;23.95;;
75584;SDS011;64162;53.508;10.476;2022-12-07T02:11:03;115.43;;;24.60;;
75584;SDS011;64162;53.508;10.476;2022-12-07T02:13:33;113.20;;;23.65;;
75584;SDS011;64162;53.508;10.476;2022-12-07T02:21:37;73.85;;;20.20;;
75584;SDS011;64162;53.508;10.476;2022-12-07T02:35:05;85.68;;;21.13;;
75584;SDS011;64162;53.508;10.476;2022-12-07T02:37:50;85.78;;;18.80;;
75584;SDS011;64162;53.508;10.476;2022-12-07T02:40:38;84.35;;;17.23;;
75584;SDS011;64162;53.508;10.476;2022-12-07T02:45:54;79.85;;;17.88;;
75584;SDS011;64162;53.508;10.476;2022-12-07T02:48:27;69.85;;;19.45;;
75584;SDS011;64162;53.508;10.476;2022-12-07T02:50:55;86.63;;;19.27;;
75584;SDS011;64162;53.508;10.476;2022-12-07T02:53:55;69.45;;;15.57;;
75584;SDS011;64162;53.508;10.476;2022-12-07T03:01:49;76.25;;;18.15;;
75584;SDS011;64162;53.508;10.476;2022-12-07T03:10:35;64.60;;;15.63;;
75584;SDS011;64162;53.508;10.476;2022-12-07T03:13:47;65.32;;;13.50;;
75584;SDS011;64162;53.508;10.476;2022-12-07T03:16:14;43.35;;;9.23;;
75584;SDS011;64162;53.508;10.476;2022-12-07T03:18:48;61.60;;;13.45;;
75584;SDS011;64162;53.508;10.476;2022-12-07T03:21:19;44.83;;;10.45;;
75584;SDS011;64162;53.508;10.476;2022-12-07T03:23:52;49.88;;;11.70;;
75584;SDS011;64162;53.508;10.476;2022-12-07T03:26:23;36.42;;;9.10;;
75584;SDS011;64162;53.508;10.476;2022-12-07T03:28:56;42.88;;;10.88;;
75584;SDS011;64162;53.508;10.476;2022-12-07T03:31:29;40.22;;;10.10;;
75584;SDS011;64162;53.508;10.476;2022-12-07T03:34:02;39.95;;;8.32;;
75584;SDS011;64162;53.508;10.476;2022-12-07T03:36:47;34.53;;;6.80;;
75584;SDS011;64162;53.508;10.476;2022-12-07T03:39:23;26.92;;;6.32;;
75584;SDS011;64162;53.508;10.476;2022-12-07T03:41:54;33.13;;;7.75;;
75584;SDS011;64162;53.508;10.476;2022-12-07T03:44:21;28.27;;;7.47;;
75584;SDS011;64162;53.508;10.476;2022-12-07T03:47:01;17.92;;;7.03;;
75584;SDS011;64162;53.508;10.476;2022-12-07T03:50:07;26.95;;;6.35;;
75584;SDS011;64162;53.508;10.476;2022-12-07T03:52:42;17.10;;;5.50;;
75584;SDS011;64162;53.508;10.476;2022-12-07T03:55:25;23.48;;;6.63;;
75584;SDS011;64162;53.508;10.476;2022-12-07T03:57:56;20.13;;;5.50;;
75584;SDS011;64162;53.508;10.476;2022-12-07T04:00:27;24.75;;;5.18;;
75584;SDS011;64162;53.508;10.476;2022-12-07T04:02:54;19.92;;;5.93;;
75584;SDS011;64162;53.508;10.476;2022-12-07T04:05:28;17.45;;;6.10;;
75584;SDS011;64162;53.508;10.476;2022-12-07T04:07:55;20.77;;;4.97;;
75584;SDS011;64162;53.508;10.476;2022-12-07T04:10:21;25.48;;;5.68;;
75584;SDS011;64162;53.508;10.476;2022-12-07T04:12:48;16.83;;;3.42;;
75584;SDS011;64162;53.508;10.476;2022-12-07T04:15:14;20.83;;;7.45;;
75584;SDS011;64162;53.508;10.476;2022-12-07T04:17:41;27.67;;;2.97;;
75584;SDS011;64162;53.508;10.476;2022-12-07T04:20:08;17.52;;;4.60;;
75584;SDS011;64162;53.508;10.476;2022-12-07T04:22:35;14.10;;;5.70;;
75584;SDS011;64162;53.508;10.476;2022-12-07T04:25:01;12.82;;;3.30;;
75584;SDS011;64162;53.508;10.476;2022-12-07T04:27:28;14.02;;;4.35;;
75584;SDS011;64162;53.508;10.476;2022-12-07T04:29:54;16.20;;;4.88;;
75584;SDS011;64162;53.508;10.476;2022-12-07T04:32:22;17.85;;;5.43;;
75584;SDS011;64162;53.508;10.476;2022-12-07T04:34:49;13.68;;;5.22;;
75584;SDS011;64162;53.508;10.476;2022-12-07T04:37:19;16.42;;;3.88;;
75584;SDS011;64162;53.508;10.476;2022-12-07T04:39:45;13.88;;;4.47;;
75584;SDS011;64162;53.508;10.476;2022-12-07T04:42:12;21.30;;;2.75;;
75584;SDS011;64162;53.508;10.476;2022-12-07T04:44:39;17.52;;;4.00;;
75584;SDS011;64162;53.508;10.476;2022-12-07T04:47:05;16.48;;;4.88;;
75584;SDS011;64162;53.508;10.476;2022-12-07T04:49:32;23.58;;;5.55;;
75584;SDS011;64162;53.508;10.476;2022-12-07T04:51:59;19.13;;;5.50;;
75584;SDS011;64162;53.508;10.476;2022-12-07T04:54:26;11.65;;;4.75;;
75584;SDS011;64162;53.508;10.476;2022-12-07T04:56:52;14.52;;;5.45;;
75584;SDS011;64162;53.508;10.476;2022-12-07T04:59:19;15.05;;;3.92;;
75584;SDS011;64162;53.508;10.476;2022-12-07T05:01:45;16.25;;;4.03;;
75584;SDS011;64162;53.508;10.476;2022-12-07T05:04:12;16.83;;;4.32;;
75584;SDS011;64162;53.508;10.476;2022-12-07T05:06:38;20.02;;;4.80;;
75584;SDS011;64162;53.508;10.476;2022-12-07T05:09:05;18.77;;;5.22;;
75584;SDS011;64162;53.508;10.476;2022-12-07T05:11:32;13.27;;;3.83;;
75584;SDS011;64162;53.508;10.476;2022-12-07T05:14:15;17.42;;;6.57;;
75584;SDS011;64162;53.508;10.476;2022-12-07T05:16:44;15.95;;;4.90;;
75584;SDS011;64162;53.508;10.476;2022-12-07T05:19:13;16.58;;;4.13;;
75584;SDS011;64162;53.508;10.476;2022-12-07T05:21:39;17.38;;;4.88;;
75584;SDS011;64162;53.508;10.476;2022-12-07T05:24:07;14.13;;;4.22;;
75584;SDS011;64162;53.508;10.476;2022-12-07T05:26:35;23.20;;;4.95;;
75584;SDS011;64162;53.508;10.476;2022-12-07T05:29:02;15.15;;;4.97;;
75584;SDS011;64162;53.508;10.476;2022-12-07T05:31:29;17.58;;;5.30;;
75584;SDS011;64162;53.508;10.476;2022-12-07T05:33:56;18.20;;;4.35;;
75584;SDS011;64162;53.508;10.476;2022-12-07T05:36:22;11.85;;;4.35;;
75584;SDS011;64162;53.508;10.476;2022-12-07T05:38:49;12.45;;;3.15;;
75584;SDS011;64162;53.508;10.476;2022-12-07T05:41:17;8.18;;;3.55;;
75584;SDS011;64162;53.508;10.476;2022-12-07T05:44:04;15.05;;;4.32;;
75584;SDS011;64162;53.508;10.476;2022-12-07T05:46:31;7.75;;;3.25;;
75584;SDS011;64162;53.508;10.476;2022-12-07T05:48:57;17.35;;;2.28;;
75584;SDS011;64162;53.508;10.476;2022-12-07T05:51:24;8.18;;;1.92;;
75584;SDS011;64162;53.508;10.476;2022-12-07T05:53:50;11.80;;;3.13;;
75584;SDS011;64162;53.508;10.476;2022-12-07T05:56:17;5.97;;;2.47;;
75584;SDS011;64162;53.508;10.476;2022-12-07T05:58:44;10.27;;;2.60;;
75584;SDS011;64162;53.508;10.476;2022-12-07T06:01:29;10.07;;;3.75;;
75584;SDS011;64162;53.508;10.476;2022-12-07T06:03:56;10.85;;;2.38;;
75584;SDS011;64162;53.508;10.476;2022-12-07T06:06:22;12.70;;;2.35;;
75584;SDS011;64162;53.508;10.476;2022-12-07T06:08:49;13.57;;;3.00;;
75584;SDS011;64162;53.508;10.476;2022-12-07T06:11:15;13.02;;;3.17;;
75584;SDS011;64162;53.508;10.476;2022-12-07T06:14:01;11.63;;;2.58;;
75584;SDS011;64162;53.508;10.476;2022-12-07T06:16:30;13.90;;;3.38;;
75584;SDS011;64162;53.508;10.476;2022-12-07T06:18:57;14.38;;;3.13;;
75584;SDS011;64162;53.508;10.476;2022-12-07T06:21:24;15.65;;;2.55;;
75584;SDS011;64162;53.508;10.476;2022-12-07T06:26:19;13.32;;;2.60;;
75584;SDS011;64162;53.508;10.476;2022-12-07T06:28:46;10.63;;;3.00;;
75584;SDS011;64162;53.508;10.476;2022-12-07T06:31:13;9.75;;;3.13;;
75584;SDS011;64162;53.508;10.476;2022-12-07T06:33:40;12.90;;;2.25;;
75584;SDS011;64162;53.508;10.476;2022-12-07T06:36:07;13.35;;;4.10;;
75584;SDS011;64162;53.508;10.476;2022-12-07T06:38:34;12.35;;;1.33;;
75584;SDS011;64162;53.508;10.476;2022-12-07T06:41:01;16.70;;;4.20;;
75584;SDS011;64162;53.508;10.476;2022-12-07T06:43:27;16.83;;;4.53;;
75584;SDS011;64162;53.508;10.476;2022-12-07T06:45:54;15.77;;;4.45;;
75584;SDS011;64162;53.508;10.476;2022-12-07T06:48:21;19.30;;;4.97;;
75584;SDS011;64162;53.508;10.476;2022-12-07T06:50:47;13.95;;;4.80;;
75584;SDS011;64162;53.508;10.476;2022-12-07T06:53:18;22.15;;;4.80;;
75584;SDS011;64162;53.508;10.476;2022-12-07T06:55:44;13.60;;;4.43;;
75584;SDS011;64162;53.508;10.476;2022-12-07T06:58:11;23.30;;;4.85;;
75584;SDS011;64162;53.508;10.476;2022-12-07T07:00:37;23.88;;;7.35;;
75584;SDS011;64162;53.508;10.476;2022-12-07T07:03:04;26.67;;;7.95;;
75584;SDS011;64162;53.508;10.476;2022-12-07T07:05:30;26.98;;;7.45;;
75584;SDS011;64162;53.508;10.476;2022-12-07T07:07:57;35.00;;;12.43;;
75584;SDS011;64162;53.508;10.476;2022-12-07T07:10:43;36.75;;;7.25;;
75584;SDS011;64162;53.508;10.476;2022-12-07T07:13:10;30.77;;;8.98;;
75584;SDS011;64162;53.508;10.476;2022-12-07T07:15:37;38.38;;;18.98;;
75584;SDS011;64162;53.508;10.476;2022-12-07T07:18:04;27.25;;;10.60;;
75584;SDS011;64162;53.508;10.476;2022-12-07T07:20:32;28.65;;;12.13;;
75584;SDS011;64162;53.508;10.476;2022-12-07T07:22:59;33.97;;;17.98;;
75584;SDS011;64162;53.508;10.476;2022-12-07T07:25:26;30.27;;;13.70;;
75584;SDS011;64162;53.508;10.476;2022-12-07T07:27:52;25.05;;;11.88;;
75584;SDS011;64162;53.508;10.476;2022-12-07T07:30:19;23.98;;;7.68;;
75584;SDS011;64162;53.508;10.476;2022-12-07T07:32:45;15.23;;;3.53;;
75584;SDS011;64162;53.508;10.476;2022-12-07T07:35:12;18.92;;;8.45;;
75584;SDS011;64162;53.508;10.476;2022-12-07T07:37:40;34.88;;;13.02;;
75584;SDS011;64162;53.508;10.476;2022-12-07T07:40:07;25.95;;;8.30;;
75584;SDS011;64162;53.508;10.476;2022-12-07T07:42:35;25.75;;;7.70;;
75584;SDS011;64162;53.508;10.476;2022-12-07T07:45:02;28.90;;;11.85;;
75584;SDS011;64162;53.508;10.476;2022-12-07T07:47:29;29.23;;;10.20;;
75584;SDS011;64162;53.508;10.476;2022-12-07T07:49:55;19.10;;;7.60;;
75584;SDS011;64162;53.508;10.476;2022-12-07T07:52:23;22.55;;;6.07;;
75584;SDS011;64162;53.508;10.476;2022-12-07T07:54:49;24.35;;;7.15;;
75584;SDS011;64162;53.508;10.476;2022-12-07T07:57:16;18.55;;;4.68;;
75584;SDS011;64162;53.508;10.476;2022-12-07T07:59:43;31.02;;;12.82;;
75584;SDS011;64162;53.508;10.476;2022-12-07T08:02:14;19.90;;;6.95;;
75584;SDS011;64162;53.508;10.476;2022-12-07T08:04:42;28.65;;;15.20;;
75584;SDS011;64162;53.508;10.476;2022-12-07T08:07:09;19.15;;;6.72;;
75584;SDS011;64162;53.508;10.476;2022-12-07T08:09:36;23.05;;;4.30;;
75584;SDS011;64162;53.508;10.476;2022-12-07T08:12:02;61.72;;;24.65;;
75584;SDS011;64162;53.508;10.476;2022-12-07T08:14:29;26.05;;;7.78;;
75584;SDS011;64162;53.508;10.476;2022-12-07T08:16:56;57.58;;;29.52;;
75584;SDS011;64162;53.508;10.476;2022-12-07T08:19:23;45.35;;;22.83;;
75584;SDS011;64162;53.508;10.476;2022-12-07T08:21:50;56.50;;;23.17;;
75584;SDS011;64162;53.508;10.476;2022-12-07T08:24:17;25.90;;;9.40;;
75584;SDS011;64162;53.508;10.476;2022-12-07T08:26:43;52.55;;;23.95;;
75584;SDS011;64162;53.508;10.476;2022-12-07T08:29:10;19.02;;;7.80;;
75584;SDS011;64162;53.508;10.476;2022-12-07T08:31:37;18.60;;;7.78;;
75584;SDS011;64162;53.508;10.476;2022-12-07T08:34:04;13.18;;;4.50;;
75584;SDS011;64162;53.508;10.476;2022-12-07T08:36:30;16.00;;;7.28;;
75584;SDS011;64162;53.508;10.476;2022-12-07T08:38:57;14.57;;;5.25;;
75584;SDS011;64162;53.508;10.476;2022-12-07T08:41:43;16.25;;;4.53;;
75584;SDS011;64162;53.508;10.476;2022-12-07T08:44:10;11.30;;;2.78;;
75584;SDS011;64162;53.508;10.476;2022-12-07T08:46:38;15.02;;;5.45;;
75584;SDS011;64162;53.508;10.476;2022-12-07T08:49:12;16.85;;;5.85;;
75584;SDS011;64162;53.508;10.476;2022-12-07T08:51:41;11.77;;;3.78;;
75584;SDS011;64162;53.508;10.476;2022-12-07T08:54:09;11.98;;;3.88;;
75584;SDS011;64162;53.508;10.476;2022-12-07T08:56:40;15.65;;;3.10;;
75584;SDS011;64162;53.508;10.476;2022-12-07T08:59:07;9.90;;;2.97;;
75584;SDS011;64162;53.508;10.476;2022-12-07T09:01:34;12.70;;;2.67;;
75584;SDS011;64162;53.508;10.476;2022-12-07T09:04:01;15.82;;;3.67;;
75584;SDS011;64162;53.508;10.476;2022-12-07T09:06:28;12.35;;;3.30;;
75584;SDS011;64162;53.508;10.476;2022-12-07T09:08:55;12.05;;;3.08;;
75584;SDS011;64162;53.508;10.476;2022-12-07T09:11:26;11.80;;;4.47;;
75584;SDS011;64162;53.508;10.476;2022-12-07T09:13:54;14.27;;;2.42;;
75584;SDS011;64162;53.508;10.476;2022-12-07T09:16:21;21.60;;;10.07;;
75584;SDS011;64162;53.508;10.476;2022-12-07T09:18:50;38.08;;;18.35;;
75584;SDS011;64162;53.508;10.476;2022-12-07T09:21:16;20.67;;;7.45;;
75584;SDS011;64162;53.508;10.476;2022-12-07T09:23:43;36.65;;;16.63;;
75584;SDS011;64162;53.508;10.476;2022-12-07T09:26:09;21.30;;;9.13;;
75584;SDS011;64162;53.508;10.476;2022-12-07T09:28:36;15.38;;;4.43;;
75584;SDS011;64162;53.508;10.476;2022-12-07T09:31:04;17.75;;;8.25;;
75584;SDS011;64162;53.508;10.476;2022-12-07T09:33:57;18.42;;;6.88;;
75584;SDS011;64162;53.508;10.476;2022-12-07T09:38:52;13.23;;;3.42;;
75584;SDS011;64162;53.508;10.476;2022-12-07T09:41:18;17.70;;;3.90;;
75584;SDS011;64162;53.508;10.476;2022-12-07T09:43:46;17.88;;;5.93;;
75584;SDS011;64162;53.508;10.476;2022-12-07T09:46:14;22.38;;;10.57;;
75584;SDS011;64162;53.508;10.476;2022-12-07T09:48:43;16.75;;;9.27;;
75584;SDS011;64162;53.508;10.476;2022-12-07T09:51:20;32.63;;;16.77;;
75584;SDS011;64162;53.508;10.476;2022-12-07T09:53:51;21.75;;;7.10;;
75584;SDS011;64162;53.508;10.476;2022-12-07T09:56:19;17.58;;;6.65;;
75584;SDS011;64162;53.508;10.476;2022-12-07T09:58:46;24.40;;;12.40;;
75584;SDS011;64162;53.508;10.476;2022-12-07T10:01:18;22.50;;;7.40;;
75584;SDS011;64162;53.508;10.476;2022-12-07T10:03:50;13.55;;;6.07;;
75584;SDS011;64162;53.508;10.476;2022-12-07T10:06:19;17.50;;;8.20;;
75584;SDS011;64162;53.508;10.476;2022-12-07T10:08:45;37.15;;;22.00;;
75584;SDS011;64162;53.508;10.476;2022-12-07T10:11:12;55.75;;;27.33;;
75584;SDS011;64162;53.508;10.476;2022-12-07T10:16:26;23.15;;;13.10;;
75584;SDS011;64162;53.508;10.476;2022-12-07T10:18:58;9.50;;;3.63;;
75584;SDS011;64162;53.508;10.476;2022-12-07T10:22:03;24.02;;;12.32;;
75584;SDS011;64162;53.508;10.476;2022-12-07T10:24:36;14.73;;;4.15;;
75584;SDS011;64162;53.508;10.476;2022-12-07T10:27:09;18.40;;;5.53;;
75584;SDS011;64162;53.508;10.476;2022-12-07T10:29:51;16.23;;;3.08;;
75584;SDS011;64162;53.508;10.476;2022-12-07T10:34:45;8.98;;;3.92;;
75584;SDS011;64162;53.508;10.476;2022-12-07T10:37:17;20.65;;;6.93;;
75584;SDS011;64162;53.508;10.476;2022-12-07T10:39:49;8.90;;;5.90;;
75584;SDS011;64162;53.508;10.476;2022-12-07T10:42:19;17.63;;;5.88;;
75584;SDS011;64162;53.508;10.476;2022-12-07T10:44:49;11.57;;;4.28;;
75584;SDS011;64162;53.508;10.476;2022-12-07T10:47:36;8.95;;;4.85;;
75584;SDS011;64162;53.508;10.476;2022-12-07T10:53:05;11.60;;;2.30;;
75584;SDS011;64162;53.508;10.476;2022-12-07T10:59:01;11.77;;;5.60;;
75584;SDS011;64162;53.508;10.476;2022-12-07T11:07:39;18.08;;;6.25;;
75584;SDS011;64162;53.508;10.476;2022-12-07T11:10:35;11.85;;;5.20;;
75584;SDS011;64162;53.508;10.476;2022-12-07T11:16:02;8.77;;;3.03;;
75584;SDS011;64162;53.508;10.476;2022-12-07T11:21:15;7.78;;;2.67;;
75584;SDS011;64162;53.508;10.476;2022-12-07T11:29:32;13.80;;;4.03;;
75584;SDS011;64162;53.508;10.476;2022-12-07T11:32:25;14.02;;;4.97;;
75584;SDS011;64162;53.508;10.476;2022-12-07T11:35:20;14.52;;;9.05;;
75584;SDS011;64162;53.508;10.476;2022-12-07T11:37:57;10.70;;;5.47;;
75584;SDS011;64162;53.508;10.476;2022-12-07T11:40:31;9.50;;;4.03;;
75584;SDS011;64162;53.508;10.476;2022-12-07T11:45:42;4.93;;;3.15;;
75584;SDS011;64162;53.508;10.476;2022-12-07T11:50:59;6.55;;;4.07;;
75584;SDS011;64162;53.508;10.476;2022-12-07T12:03:45;13.32;;;7.97;;
75584;SDS011;64162;53.508;10.476;2022-12-07T12:06:17;11.60;;;5.13;;
75584;SDS011;64162;53.508;10.476;2022-12-07T12:08:50;13.40;;;5.10;;
75584;SDS011;64162;53.508;10.476;2022-12-07T12:20:31;10.57;;;5.22;;
75584;SDS011;64162;53.508;10.476;2022-12-07T12:23:21;12.85;;;5.07;;
75584;SDS011;64162;53.508;10.476;2022-12-07T12:25:51;17.90;;;5.45;;
75584;SDS011;64162;53.508;10.476;2022-12-07T12:28:24;6.80;;;2.60;;
75584;SDS011;64162;53.508;10.476;2022-12-07T12:31:11;8.13;;;2.85;;
75584;SDS011;64162;53.508;10.476;2022-12-07T12:44:02;8.65;;;1.73;;
75584;SDS011;64162;53.508;10.476;2022-12-07T12:46:56;15.55;;;9.68;;
75584;SDS011;64162;53.508;10.476;2022-12-07T12:57:41;4.38;;;1.80;;
75584;SDS011;64162;53.508;10.476;2022-12-07T13:02:49;6.63;;;3.83;;
75584;SDS011;64162;53.508;10.476;2022-12-07T13:05:21;7.18;;;1.63;;
75584;SDS011;64162;53.508;10.476;2022-12-07T13:08:32;8.63;;;2.03;;
75584;SDS011;64162;53.508;10.476;2022-12-07T13:10:40;7.22;;;3.63;;
75584;SDS011;64162;53.508;10.476;2022-12-07T13:26:17;5.22;;;0.10;;
75584;SDS011;64162;53.508;10.476;2022-12-07T13:31:32;6.10;;;1.55;;
75584;SDS011;64162;53.508;10.476;2022-12-07T13:34:01;1.50;;;1.25;;
75584;SDS011;64162;53.508;10.476;2022-12-07T13:36:31;6.70;;;1.20;;
75584;SDS011;64162;53.508;10.476;2022-12-07T13:39:19;5.60;;;1.05;;
75584;SDS011;64162;53.508;10.476;2022-12-07T13:41:50;4.85;;;1.65;;
75584;SDS011;64162;53.508;10.476;2022-12-07T13:44:18;3.53;;;1.33;;
75584;SDS011;64162;53.508;10.476;2022-12-07T13:47:06;3.28;;;1.55;;
75584;SDS011;64162;53.508;10.476;2022-12-07T13:49:51;4.78;;;1.63;;
75584;SDS011;64162;53.508;10.476;2022-12-07T13:52:24;9.20;;;0.30;;
75584;SDS011;64162;53.508;10.476;2022-12-07T13:55:08;1.58;;;1.08;;
75584;SDS011;64162;53.508;10.476;2022-12-07T13:57:41;3.20;;;1.42;;
75584;SDS011;64162;53.508;10.476;2022-12-07T14:00:27;2.40;;;2.30;;
75584;SDS011;64162;53.508;10.476;2022-12-07T14:03:41;2.20;;;1.08;;
75584;SDS011;64162;53.508;10.476;2022-12-07T14:05:43;4.32;;;3.88;;
75584;SDS011;64162;53.508;10.476;2022-12-07T14:10:41;1.95;;;1.85;;
75584;SDS011;64162;53.508;10.476;2022-12-07T14:15:51;4.15;;;1.92;;
75584;SDS011;64162;53.508;10.476;2022-12-07T14:18:29;0.93;;;0.88;;
75584;SDS011;64162;53.508;10.476;2022-12-07T14:21:06;5.95;;;3.45;;
75584;SDS011;64162;53.508;10.476;2022-12-07T14:23:41;5.57;;;1.42;;
75584;SDS011;64162;53.508;10.476;2022-12-07T14:26:11;3.28;;;1.65;;
75584;SDS011;64162;53.508;10.476;2022-12-07T14:28:42;5.80;;;1.38;;
75584;SDS011;64162;53.508;10.476;2022-12-07T14:33:58;1.75;;;1.65;;
75584;SDS011;64162;53.508;10.476;2022-12-07T14:36:25;3.35;;;1.33;;
75584;SDS011;64162;53.508;10.476;2022-12-07T14:38:52;3.47;;;1.38;;
75584;SDS011;64162;53.508;10.476;2022-12-07T14:41:22;2.78;;;1.30;;
75584;SDS011;64162;53.508;10.476;2022-12-07T14:44:10;4.38;;;1.25;;
75584;SDS011;64162;53.508;10.476;2022-12-07T14:46:57;3.25;;;2.50;;
75584;SDS011;64162;53.508;10.476;2022-12-07T14:49:44;1.35;;;1.27;;
75584;SDS011;64162;53.508;10.476;2022-12-07T14:52:17;5.15;;;1.02;;
75584;SDS011;64162;53.508;10.476;2022-12-07T14:55:14;1.90;;;1.58;;
75584;SDS011;64162;53.508;10.476;2022-12-07T14:57:46;6.47;;;1.30;;
75584;SDS011;64162;53.508;10.476;2022-12-07T15:00:13;1.25;;;1.15;;
75584;SDS011;64162;53.508;10.476;2022-12-07T15:02:41;2.78;;;1.65;;
75584;SDS011;64162;53.508;10.476;2022-12-07T15:05:07;3.63;;;0.98;;
75584;SDS011;64162;53.508;10.476;2022-12-07T15:07:37;3.92;;;1.25;;
75584;SDS011;64162;53.508;10.476;2022-12-07T15:10:05;4.93;;;1.48;;
75584;SDS011;64162;53.508;10.476;2022-12-07T15:12:36;8.80;;;1.98;;
75584;SDS011;64162;53.508;10.476;2022-12-07T15:15:03;2.60;;;1.17;;
75584;SDS011;64162;53.508;10.476;2022-12-07T15:17:30;4.45;;;3.58;;
75584;SDS011;64162;53.508;10.476;2022-12-07T15:19:57;1.70;;;0.88;;
75584;SDS011;64162;53.508;10.476;2022-12-07T15:22:24;9.20;;;5.57;;
75584;SDS011;64162;53.508;10.476;2022-12-07T15:24:50;4.07;;;2.15;;
75584;SDS011;64162;53.508;10.476;2022-12-07T15:27:17;3.17;;;0.95;;
75584;SDS011;64162;53.508;10.476;2022-12-07T15:29:44;2.72;;;2.53;;
75584;SDS011;64162;53.508;10.476;2022-12-07T15:32:13;4.22;;;1.85;;
75584;SDS011;64162;53.508;10.476;2022-12-07T15:34:40;7.55;;;1.80;;
75584;SDS011;64162;53.508;10.476;2022-12-07T15:37:07;12.05;;;6.75;;
75584;SDS011;64162;53.508;10.476;2022-12-07T15:39:35;9.73;;;4.90;;
75584;SDS011;64162;53.508;10.476;2022-12-07T15:42:03;5.10;;;3.53;;
75584;SDS011;64162;53.508;10.476;2022-12-07T15:44:30;8.57;;;4.95;;
75584;SDS011;64162;53.508;10.476;2022-12-07T15:47:15;9.75;;;2.33;;
75584;SDS011;64162;53.508;10.476;2022-12-07T15:49:41;5.90;;;1.48;;
75584;SDS011;64162;53.508;10.476;2022-12-07T15:52:08;5.40;;;1.85;;
75584;SDS011;64162;53.508;10.476;2022-12-07T15:54:35;2.67;;;1.90;;
75584;SDS011;64162;53.508;10.476;2022-12-07T15:57:01;18.70;;;9.13;;
75584;SDS011;64162;53.508;10.476;2022-12-07T15:59:28;38.20;;;17.75;;
75584;SDS011;64162;53.508;10.476;2022-12-07T16:01:55;15.15;;;9.90;;
75584;SDS011;64162;53.508;10.476;2022-12-07T16:04:22;13.10;;;7.93;;
75584;SDS011;64162;53.508;10.476;2022-12-07T16:06:49;4.65;;;2.78;;
75584;SDS011;64162;53.508;10.476;2022-12-07T16:09:20;13.32;;;3.58;;
75584;SDS011;64162;53.508;10.476;2022-12-07T16:11:47;13.38;;;5.68;;
75584;SDS011;64162;53.508;10.476;2022-12-07T16:14:14;9.23;;;4.15;;
75584;SDS011;64162;53.508;10.476;2022-12-07T16:16:40;10.45;;;5.00;;
75584;SDS011;64162;53.508;10.476;2022-12-07T16:19:08;12.32;;;5.57;;
75584;SDS011;64162;53.508;10.476;2022-12-07T16:21:35;12.88;;;5.68;;
75584;SDS011;64162;53.508;10.476;2022-12-07T16:24:02;7.07;;;4.28;;
75584;SDS011;64162;53.508;10.476;2022-12-07T16:26:29;10.98;;;1.88;;
75584;SDS011;64162;53.508;10.476;2022-12-07T16:28:56;14.77;;;3.95;;
75584;SDS011;64162;53.508;10.476;2022-12-07T16:31:24;15.43;;;4.25;;
75584;SDS011;64162;53.508;10.476;2022-12-07T16:33:53;18.38;;;6.10;;
75584;SDS011;64162;53.508;10.476;2022-12-07T16:36:22;10.50;;;4.63;;
75584;SDS011;64162;53.508;10.476;2022-12-07T16:39:05;13.48;;;6.75;;
75584;SDS011;64162;53.508;10.476;2022-12-07T16:41:32;10.25;;;4.45;;
75584;SDS011;64162;53.508;10.476;2022-12-07T16:44:07;31.48;;;16.15;;
75584;SDS011;64162;53.508;10.476;2022-12-07T16:46:36;23.02;;;11.95;;
75584;SDS011;64162;53.508;10.476;2022-12-07T16:49:03;22.77;;;9.20;;
75584;SDS011;64162;53.508;10.476;2022-12-07T16:51:30;20.85;;;9.50;;
75584;SDS011;64162;53.508;10.476;2022-12-07T16:53:57;23.48;;;9.50;;
75584;SDS011;64162;53.508;10.476;2022-12-07T16:56:24;18.08;;;8.90;;